createdAt,value
2022-08-16T00:00:48.370Z,57.2
2022-08-16T00:01:41.762Z,57.15
2022-08-16T00:02:41.613Z,57.4
2022-08-16T00:03:41.604Z,57.24
2022-08-16T00:05:00.051Z,57.23
2022-08-16T00:05:48.367Z,57.03
2022-08-16T00:06:41.577Z,57.03
2022-08-16T00:07:41.565Z,57.38
2022-08-16T00:08:45.934Z,57.09
2022-08-16T00:09:41.820Z,57.37
2022-08-16T00:10:44.119Z,57.15
2022-08-16T00:11:41.993Z,57.04
2022-08-16T00:12:41.543Z,57.32
2022-08-16T00:13:42.502Z,57.27
2022-08-16T00:14:43.911Z,56.71
2022-08-16T00:15:51.919Z,57.18
2022-08-16T00:17:01.435Z,57.18
2022-08-16T00:17:56.258Z,57.14
2022-08-16T00:18:48.931Z,57.12
2022-08-16T00:19:42.231Z,57.28
2022-08-16T00:20:45.569Z,57.18
2022-08-16T00:21:41.570Z,57.25
2022-08-16T00:22:42.793Z,57.22
2022-08-16T00:23:46.299Z,57.26
2022-08-16T00:24:41.551Z,57.13
2022-08-16T00:26:35.904Z,57.14
2022-08-16T00:26:45.283Z,57.28
2022-08-16T00:27:41.571Z,57.36
2022-08-16T00:28:44.050Z,57.4
2022-08-16T00:29:41.517Z,57.15
2022-08-16T00:30:41.530Z,57.18
2022-08-16T00:31:58.664Z,56.96
2022-08-16T00:32:49.247Z,57.23
2022-08-16T00:33:41.523Z,57.35
2022-08-16T00:34:53.040Z,57.35
2022-08-16T00:35:41.553Z,57.31
2022-08-16T00:36:47.310Z,57.28
2022-08-16T00:38:44.194Z,57.33
2022-08-16T00:39:41.634Z,57.29
2022-08-16T00:40:43.847Z,57.32
2022-08-16T00:41:41.517Z,57.35
2022-08-16T00:42:41.595Z,57.42
2022-08-16T00:43:46.726Z,57.35
2022-08-16T00:44:44.021Z,57.42
2022-08-16T00:46:00.306Z,57.48
2022-08-16T00:46:53.003Z,57.49
2022-08-16T00:47:49.092Z,57.37
2022-08-16T00:48:45.444Z,57.3
2022-08-16T00:49:44.805Z,57.47
2022-08-16T00:50:41.549Z,57.48
2022-08-16T00:51:41.555Z,57.41
2022-08-16T00:52:45.959Z,57.29
2022-08-16T00:53:41.557Z,57.34
2022-08-16T00:54:41.503Z,57.37
2022-08-16T00:55:41.505Z,57.3
2022-08-16T00:56:57.050Z,57.24
2022-08-16T00:57:59.939Z,57.16
2022-08-16T00:58:41.594Z,57.28
2022-08-16T00:59:54.752Z,57.33
2022-08-16T01:00:41.991Z,57.36
2022-08-16T01:01:44.173Z,57.11
2022-08-16T01:02:41.536Z,57.11
2022-08-16T01:03:41.906Z,57.14
2022-08-16T01:04:41.520Z,57.18
2022-08-16T01:05:43.881Z,57.4
2022-08-16T01:06:49.223Z,57.21
2022-08-16T01:07:52.049Z,56.88
2022-08-16T01:08:56.849Z,56.76
2022-08-16T01:09:50.100Z,56.72
2022-08-16T01:10:41.472Z,56.82
2022-08-16T01:11:54.091Z,56.68
2022-08-16T01:12:44.107Z,56.85
2022-08-16T01:13:41.474Z,56.79
2022-08-16T01:14:41.494Z,57.04
2022-08-16T01:15:43.106Z,56.79
2022-08-16T01:16:43.911Z,56.89
2022-08-16T01:17:42.163Z,57.14
2022-08-16T01:18:44.201Z,57.08
2022-08-16T01:19:41.857Z,57.03
2022-08-16T01:20:41.617Z,57.24
2022-08-16T01:21:41.526Z,57.11
2022-08-16T01:22:48.280Z,57.34
2022-08-16T01:24:00.807Z,57.41
2022-08-16T01:24:54.095Z,57.36
2022-08-16T01:25:41.518Z,57.09
2022-08-16T01:27:41.491Z,57.24
2022-08-16T01:28:45.502Z,57.23
2022-08-16T01:29:57.892Z,56.64
2022-08-16T01:30:50.466Z,56.93
2022-08-16T01:31:42.804Z,56.89
2022-08-16T01:32:46.690Z,56.68
2022-08-16T01:33:44.688Z,56.74
2022-08-16T01:34:47.045Z,56.56
2022-08-16T01:35:41.457Z,57.03
2022-08-16T01:36:41.873Z,56.95
2022-08-16T01:37:42.384Z,56.94
2022-08-16T01:38:46.887Z,56.78
2022-08-16T01:39:41.523Z,56.7
2022-08-16T01:40:41.505Z,56.7
2022-08-16T01:41:44.280Z,56.58
2022-08-16T01:42:42.403Z,56.8
2022-08-16T01:43:44.506Z,56.8
2022-08-16T01:44:41.498Z,57.06
2022-08-16T01:45:44.820Z,57
2022-08-16T01:47:49.463Z,57.09
2022-08-16T01:48:43.704Z,56.87
2022-08-16T01:50:42.483Z,56.93
2022-08-16T01:51:16.224Z,57.03
2022-08-16T01:51:41.845Z,57.16
2022-08-16T01:52:46.537Z,57.02
2022-08-16T01:53:41.990Z,56.94
2022-08-16T01:54:48.809Z,56.62
2022-08-16T01:55:53.673Z,57.09
2022-08-16T01:56:51.525Z,57.14
2022-08-16T01:57:53.787Z,57.08
2022-08-16T01:58:47.996Z,56.42
2022-08-16T01:59:41.465Z,57.17
2022-08-16T02:00:49.270Z,57.25
2022-08-16T02:01:41.449Z,56.96
2022-08-16T02:02:43.937Z,57.09
2022-08-16T02:04:10.844Z,57.12
2022-08-16T02:04:54.565Z,57.17
2022-08-16T02:05:46.822Z,57.25
2022-08-16T02:06:46.910Z,57.27
2022-08-16T02:07:44.137Z,57.11
2022-08-16T02:08:44.070Z,57.2
2022-08-16T02:09:43.872Z,57.17
2022-08-16T02:10:48.231Z,57.31
2022-08-16T02:11:47.943Z,57.29
2022-08-16T02:12:51.285Z,57.3
2022-08-16T02:13:41.719Z,57.34
2022-08-16T02:14:41.454Z,57.1
2022-08-16T02:15:43.845Z,57.17
2022-08-16T02:16:44.113Z,57.02
2022-08-16T02:17:41.410Z,57.1
2022-08-16T02:18:44.003Z,57.2
2022-08-16T02:19:58.922Z,57.04
2022-08-16T02:20:45.512Z,57.12
2022-08-16T02:22:09.052Z,57.17
2022-08-16T02:22:43.446Z,57.04
2022-08-16T02:23:43.757Z,57.29
2022-08-16T02:24:42.228Z,57.21
2022-08-16T02:25:50.926Z,56.97
2022-08-16T02:26:43.629Z,56.89
2022-08-16T02:27:41.477Z,56.83
2022-08-16T02:28:47.223Z,57.04
2022-08-16T02:30:47.632Z,56.9
2022-08-16T02:32:04.110Z,57.11
2022-08-16T02:32:50.397Z,56.86
2022-08-16T02:33:50.636Z,56.66
2022-08-16T02:34:41.411Z,56.79
2022-08-16T02:35:53.986Z,56.98
2022-08-16T02:36:49.758Z,57.04
2022-08-16T02:37:52.619Z,57.15
2022-08-16T02:38:43.956Z,57.28
2022-08-16T02:39:44.652Z,57.09
2022-08-16T02:40:44.514Z,56.8
2022-08-16T02:41:41.486Z,56.95
2022-08-16T02:42:49.686Z,57.05
2022-08-16T02:43:44.088Z,56.91
2022-08-16T02:44:46.510Z,56.46
2022-08-16T02:45:43.942Z,56.96
2022-08-16T02:46:41.393Z,57.4
2022-08-16T02:48:00.679Z,57.34
2022-08-16T02:48:47.449Z,57.38
2022-08-16T02:50:55.296Z,57.14
2022-08-16T02:51:43.462Z,57.17
2022-08-16T02:53:41.427Z,57.2
2022-08-16T02:54:41.409Z,57.22
2022-08-16T02:55:43.880Z,57.05
2022-08-16T02:56:41.400Z,57.17
2022-08-16T02:57:54.299Z,57.28
2022-08-16T02:58:41.371Z,57.16
2022-08-16T02:59:41.666Z,56.84
2022-08-16T03:00:45.350Z,57.14
2022-08-16T03:01:43.759Z,56.95
2022-08-16T03:02:44.312Z,57.15
2022-08-16T03:04:39.792Z,57.15
2022-08-16T03:04:52.541Z,56.58
2022-08-16T03:05:41.444Z,56.89
2022-08-16T03:06:43.134Z,56.93
2022-08-16T03:07:41.365Z,57.15
2022-08-16T03:08:51.801Z,57.09
2022-08-16T03:09:41.385Z,57.2
2022-08-16T03:10:59.144Z,57.23
2022-08-16T03:11:41.363Z,57.02
2022-08-16T03:12:55.093Z,57.02
2022-08-16T03:13:41.362Z,57.14
2022-08-16T03:14:42.739Z,56.76
2022-08-16T03:15:41.348Z,57.13
2022-08-16T03:16:59.461Z,57.23
2022-08-16T03:17:53.546Z,57.34
2022-08-16T03:18:42.804Z,57.1
2022-08-16T03:19:56.550Z,57.09
2022-08-16T03:21:41.414Z,57.15
2022-08-16T03:22:45.327Z,57
2022-08-16T03:23:41.394Z,57.03
2022-08-16T03:24:44.718Z,56.95
2022-08-16T03:25:44.657Z,57.1
2022-08-16T03:26:43.618Z,56.59
2022-08-16T03:27:41.356Z,57.37
2022-08-16T03:28:41.465Z,56.64
2022-08-16T03:29:42.759Z,57.29
2022-08-16T03:30:44.064Z,57.05
2022-08-16T03:31:41.350Z,56.75
2022-08-16T03:32:41.313Z,56.95
2022-08-16T03:33:44.159Z,57.02
2022-08-16T03:34:49.897Z,57.2
2022-08-16T03:35:43.990Z,57.16
2022-08-16T03:36:41.333Z,56.23
2022-08-16T03:38:01.707Z,57.01
2022-08-16T03:38:41.661Z,57.15
2022-08-16T03:39:44.394Z,56.91
2022-08-16T03:40:41.347Z,56.7
2022-08-16T03:41:50.162Z,57.2
2022-08-16T03:43:18.632Z,57.41
2022-08-16T03:43:51.242Z,57.16
2022-08-16T03:45:41.443Z,56.93
2022-08-16T03:46:47.798Z,55.81
2022-08-16T03:47:44.230Z,56.98
2022-08-16T03:48:41.383Z,56.73
2022-08-16T03:49:41.310Z,56.93
2022-08-16T03:50:41.363Z,56.2
2022-08-16T03:51:41.313Z,57.08
2022-08-16T03:52:43.710Z,57.31
2022-08-16T03:53:41.612Z,57.07
2022-08-16T03:54:53.275Z,57.16
2022-08-16T03:56:56.631Z,57.09
2022-08-16T03:57:41.301Z,56.98
2022-08-16T03:58:41.291Z,56.31
2022-08-16T03:59:43.577Z,57.1
2022-08-16T04:00:44.441Z,56.96
2022-08-16T04:01:43.764Z,57
2022-08-16T04:02:41.299Z,57.05
2022-08-16T04:03:41.300Z,57.28
2022-08-16T04:04:46.425Z,57.04
2022-08-16T04:05:46.937Z,56.89
2022-08-16T04:07:44.199Z,56.73
2022-08-16T04:08:41.294Z,56.04
2022-08-16T04:09:44.381Z,56.6
2022-08-16T04:10:41.263Z,56.66
2022-08-16T04:11:41.364Z,56.35
2022-08-16T04:12:54.282Z,56.89
2022-08-16T04:14:00.334Z,57.35
2022-08-16T04:14:46.840Z,57.42
2022-08-16T04:15:46.549Z,57.15
2022-08-16T04:16:41.311Z,56.74
2022-08-16T04:17:41.291Z,56.68
2022-08-16T04:18:43.787Z,55.36
2022-08-16T04:19:45.390Z,57.69
2022-08-16T04:20:41.351Z,58.45
2022-08-16T04:21:47.362Z,59.04
2022-08-16T04:22:44.099Z,58.01
2022-08-16T04:23:41.271Z,58.5
2022-08-16T04:24:43.592Z,59.12
2022-08-16T04:25:41.304Z,59.96
2022-08-16T04:26:45.897Z,60.3
2022-08-16T04:27:41.270Z,59.92
2022-08-16T04:28:55.743Z,59.84
2022-08-16T04:29:46.631Z,58.53
2022-08-16T04:30:44.226Z,57.68
2022-08-16T04:31:43.764Z,57.92
2022-08-16T04:32:41.347Z,57.49
2022-08-16T04:33:50.702Z,57.89
2022-08-16T04:34:41.263Z,56.81
2022-08-16T04:35:41.649Z,57.8
2022-08-16T04:36:41.358Z,57.07
2022-08-16T04:37:42.202Z,56.44
2022-08-16T04:38:44.416Z,57.26
2022-08-16T04:39:47.004Z,57.67
2022-08-16T04:40:42.375Z,56.42
2022-08-16T04:41:41.274Z,57.93
2022-08-16T04:42:41.322Z,57.11
2022-08-16T04:43:43.670Z,57.64
2022-08-16T04:44:53.937Z,56.8
2022-08-16T04:45:44.240Z,56.67
2022-08-16T04:47:01.056Z,57.24
2022-08-16T04:47:41.283Z,57.64
2022-08-16T04:48:43.727Z,56.89
2022-08-16T04:49:45.757Z,57.43
2022-08-16T04:50:43.480Z,57.37
2022-08-16T04:51:44.283Z,56.39
2022-08-16T04:52:41.389Z,57.13
2022-08-16T04:53:41.626Z,56.75
2022-08-16T04:54:43.228Z,56.7
2022-08-16T04:55:43.706Z,56.41
2022-08-16T04:56:46.291Z,56.16
2022-08-16T04:57:53.450Z,56.3
2022-08-16T04:58:46.009Z,56.66
2022-08-16T04:59:41.254Z,56.96
2022-08-16T05:00:41.321Z,55.59
2022-08-16T05:01:57.557Z,57.34
2022-08-16T05:02:42.880Z,56.19
2022-08-16T05:03:41.731Z,56.62
2022-08-16T05:04:41.225Z,56.86
2022-08-16T05:05:55.595Z,56.29
2022-08-16T05:06:45.231Z,56.61
2022-08-16T05:07:58.439Z,56.41
2022-08-16T05:08:47.307Z,55.56
2022-08-16T05:09:45.171Z,56.41
2022-08-16T05:10:41.262Z,56.8
2022-08-16T05:12:44.806Z,56.11
2022-08-16T05:13:42.614Z,56.28
2022-08-16T05:14:46.275Z,56.54
2022-08-16T05:15:41.301Z,55.93
2022-08-16T05:16:43.585Z,56.38
2022-08-16T05:17:41.250Z,56.04
2022-08-16T05:18:43.261Z,56.1
2022-08-16T05:19:41.260Z,56.15
2022-08-16T05:21:44.031Z,56.61
2022-08-16T05:23:47.843Z,56.63
2022-08-16T05:24:43.839Z,56.51
2022-08-16T05:25:48.741Z,56.65
2022-08-16T05:26:51.217Z,56.04
2022-08-16T05:27:43.138Z,56.73
2022-08-16T05:28:41.285Z,56.55
2022-08-16T05:29:57.490Z,56.11
2022-08-16T05:30:41.243Z,56
2022-08-16T05:31:48.063Z,56.33
2022-08-16T05:32:45.856Z,56.2
2022-08-16T05:33:42.256Z,56.67
2022-08-16T05:34:41.440Z,55.73
2022-08-16T05:35:44.239Z,55.64
2022-08-16T05:36:41.251Z,54.69
2022-08-16T05:37:41.203Z,54.8
2022-08-16T05:38:41.262Z,55.24
2022-08-16T05:39:41.229Z,55.99
2022-08-16T05:40:41.251Z,55.61
2022-08-16T05:41:45.260Z,55.88
2022-08-16T05:42:41.522Z,55.35
2022-08-16T05:44:44.264Z,55.64
2022-08-16T05:45:41.272Z,55.58
2022-08-16T05:46:43.563Z,55.58
2022-08-16T05:47:43.233Z,56.23
2022-08-16T05:48:41.230Z,56.2
2022-08-16T05:49:44.014Z,55.63
2022-08-16T05:50:41.663Z,55.63
2022-08-16T05:51:41.587Z,55.21
2022-08-16T05:52:44.986Z,54.95
2022-08-16T05:53:43.930Z,55.43
2022-08-16T05:55:02.047Z,55.89
2022-08-16T05:56:41.181Z,55.36
2022-08-16T05:57:41.943Z,55.79
2022-08-16T05:58:41.188Z,55.54
2022-08-16T05:59:43.747Z,55.78
2022-08-16T06:00:49.597Z,54.72
2022-08-16T06:01:41.233Z,55.03
2022-08-16T06:02:41.293Z,54.88
2022-08-16T06:03:43.591Z,55.22
2022-08-16T06:04:42.320Z,55.06
2022-08-16T06:06:41.195Z,55.16
2022-08-16T06:07:43.441Z,54.73
2022-08-16T06:08:42.119Z,54.71
2022-08-16T06:09:46.634Z,54.83
2022-08-16T06:11:10.466Z,53.89
2022-08-16T06:11:43.132Z,54.82
2022-08-16T06:12:41.237Z,56.06
2022-08-16T06:13:42.370Z,54.96
2022-08-16T06:14:58.415Z,54.75
2022-08-16T06:15:41.554Z,55.4
2022-08-16T06:16:41.184Z,55.11
2022-08-16T06:17:44.520Z,54.62
2022-08-16T06:18:41.210Z,54.52
2022-08-16T06:19:44.625Z,55.05
2022-08-16T06:20:55.080Z,55.01
2022-08-16T06:21:46.169Z,55.82
2022-08-16T06:22:44.642Z,54.43
2022-08-16T06:24:53.520Z,55.28
2022-08-16T06:24:54.155Z,54.33
2022-08-16T06:25:41.160Z,54.74
2022-08-16T06:26:57.906Z,54.87
2022-08-16T06:27:41.171Z,54.66
2022-08-16T06:28:41.159Z,54.84
2022-08-16T06:29:41.226Z,55.06
2022-08-16T06:31:50.601Z,54.77
2022-08-16T06:33:58.581Z,55.14
2022-08-16T06:34:57.204Z,54.63
2022-08-16T06:35:46.172Z,54.39
2022-08-16T06:36:43.604Z,53.49
2022-08-16T06:37:42.968Z,54.61
2022-08-16T06:38:58.476Z,54.75
2022-08-16T06:39:49.700Z,54.69
2022-08-16T06:40:41.161Z,54.84
2022-08-16T06:41:43.822Z,55.3
2022-08-16T06:42:47.869Z,54.85
2022-08-16T06:43:41.171Z,54.76
2022-08-16T06:44:43.801Z,55.28
2022-08-16T06:45:43.244Z,56.31
2022-08-16T06:46:43.446Z,54.76
2022-08-16T06:47:56.123Z,54.96
2022-08-16T06:48:42.664Z,55.18
2022-08-16T06:49:41.165Z,55.25
2022-08-16T06:50:43.547Z,54.56
2022-08-16T06:51:46.448Z,54.76
2022-08-16T06:53:41.126Z,54.82
2022-08-16T06:54:41.230Z,54.48
2022-08-16T06:55:43.737Z,54.35
2022-08-16T06:56:43.492Z,54.45
2022-08-16T06:57:43.935Z,54.55
2022-08-16T06:58:48.347Z,54.27
2022-08-16T06:59:52.261Z,54.82
2022-08-16T07:00:44.364Z,54.83
2022-08-16T07:01:45.045Z,54.8
2022-08-16T07:02:41.155Z,54.64
2022-08-16T07:03:54.477Z,54.6
2022-08-16T07:04:43.513Z,53.76
2022-08-16T07:05:58.569Z,54.41
2022-08-16T07:06:43.089Z,54.71
2022-08-16T07:08:41.099Z,53.39
2022-08-16T07:09:41.137Z,53.88
2022-08-16T07:10:41.716Z,53.62
2022-08-16T07:12:47.500Z,53.58
2022-08-16T07:14:00.416Z,53.5
2022-08-16T07:14:46.159Z,53.28
2022-08-16T07:15:50.559Z,54.24
2022-08-16T07:17:41.372Z,54.98
2022-08-16T07:18:58.991Z,54.65
2022-08-16T07:20:30.363Z,55.73
2022-08-16T07:20:48.622Z,55.47
2022-08-16T07:21:46.422Z,56.07
2022-08-16T07:22:41.103Z,56.36
2022-08-16T07:23:43.935Z,56.18
2022-08-16T07:24:45.761Z,57.42
2022-08-16T07:25:41.083Z,57.93
2022-08-16T07:26:41.099Z,58.37
2022-08-16T07:27:41.075Z,57.91
2022-08-16T07:28:46.238Z,57.3
2022-08-16T07:29:41.064Z,58.31
2022-08-16T07:30:46.613Z,57.75
2022-08-16T07:31:43.979Z,58.2
2022-08-16T07:32:43.262Z,57.68
2022-08-16T07:33:51.725Z,57.25
2022-08-16T07:34:48.977Z,57.88
2022-08-16T07:35:44.048Z,56.02
2022-08-16T07:36:45.118Z,56.17
2022-08-16T07:37:43.672Z,57.09
2022-08-16T07:38:41.060Z,56.69
2022-08-16T07:39:43.703Z,57.01
2022-08-16T07:40:59.789Z,55.88
2022-08-16T07:41:46.663Z,55.29
2022-08-16T07:42:41.102Z,55.46
2022-08-16T07:43:43.502Z,55
2022-08-16T07:44:50.209Z,54.17
2022-08-16T07:45:43.180Z,54.88
2022-08-16T07:46:41.029Z,54.83
2022-08-16T07:47:41.946Z,54.73
2022-08-16T07:48:43.573Z,54.45
2022-08-16T07:49:57.858Z,54.75
2022-08-16T07:50:56.240Z,54.91
2022-08-16T07:51:46.878Z,53.7
2022-08-16T07:52:43.157Z,53.94
2022-08-16T07:54:45.858Z,54.31
2022-08-16T07:55:45.942Z,54.68
2022-08-16T07:56:43.725Z,55.97
2022-08-16T07:57:58.035Z,56.58
2022-08-16T07:58:41.088Z,56
2022-08-16T08:00:04.476Z,56.61
2022-08-16T08:00:41.127Z,57.37
2022-08-16T08:01:41.045Z,57.52
2022-08-16T08:02:41.148Z,57.72
2022-08-16T08:03:49.260Z,57.35
2022-08-16T08:04:46.218Z,57.42
2022-08-16T08:05:44.098Z,57.38
2022-08-16T08:06:44.023Z,57.77
2022-08-16T08:09:01.714Z,57.5
2022-08-16T08:09:43.542Z,57.46
2022-08-16T08:10:43.311Z,56.57
2022-08-16T08:11:41.035Z,56.97
2022-08-16T08:12:41.200Z,56.85
2022-08-16T08:13:42.273Z,57.24
2022-08-16T08:14:41.039Z,55.97
2022-08-16T08:16:45.543Z,55.86
2022-08-16T08:17:43.217Z,55.79
2022-08-16T08:18:41.013Z,54.98
2022-08-16T08:19:53.182Z,55.43
2022-08-16T08:20:41.040Z,55.71
2022-08-16T08:22:00.585Z,55.9
2022-08-16T08:22:41.598Z,56.25
2022-08-16T08:23:42.467Z,56.19
2022-08-16T08:24:44.143Z,55.49
2022-08-16T08:25:54.263Z,55.59
2022-08-16T08:26:43.223Z,54.95
2022-08-16T08:27:41.057Z,54.01
2022-08-16T08:28:41.057Z,55.1
2022-08-16T08:29:42.568Z,53.8
2022-08-16T08:30:57.132Z,54.18
2022-08-16T08:31:41.073Z,53.55
2022-08-16T08:32:58.421Z,53.55
2022-08-16T08:33:47.115Z,53.37
2022-08-16T08:34:40.981Z,53.49
2022-08-16T08:35:43.065Z,55.1
2022-08-16T08:36:44.062Z,55.91
2022-08-16T08:37:55.579Z,57.42
2022-08-16T08:38:45.717Z,56.22
2022-08-16T08:39:53.362Z,57.18
2022-08-16T08:40:41.007Z,57.27
2022-08-16T08:41:41.024Z,58.07
2022-08-16T08:42:41.127Z,56.69
2022-08-16T08:43:41.554Z,57.8
2022-08-16T08:44:40.986Z,57.54
2022-08-16T08:45:47.151Z,57.91
2022-08-16T08:46:41.013Z,58.27
2022-08-16T08:47:43.189Z,58.32
2022-08-16T08:48:43.805Z,57.13
2022-08-16T08:49:55.045Z,57.44
2022-08-16T08:50:50.202Z,57.02
2022-08-16T08:51:41.325Z,57.06
2022-08-16T08:52:43.640Z,56.53
2022-08-16T08:53:41.002Z,55.1
2022-08-16T08:54:43.126Z,55.8
2022-08-16T08:55:46.044Z,56.08
2022-08-16T08:56:45.736Z,56.33
2022-08-16T08:58:41.026Z,55.78
2022-08-16T08:59:43.399Z,55.29
2022-08-16T09:01:16.809Z,54.16
2022-08-16T09:01:56.571Z,54.65
2022-08-16T09:02:41.445Z,53.33
2022-08-16T09:03:43.107Z,53.79
2022-08-16T09:04:40.987Z,53.57
2022-08-16T09:05:40.973Z,54.11
2022-08-16T09:06:43.906Z,52.6
2022-08-16T09:08:00.902Z,53.76
2022-08-16T09:08:47.302Z,53.39
2022-08-16T09:09:41.390Z,53.6
2022-08-16T09:10:41.060Z,54.02
2022-08-16T09:11:51.103Z,53.51
2022-08-16T09:12:41.094Z,53.7
2022-08-16T09:13:47.103Z,52.96
2022-08-16T09:14:49.680Z,53.01
2022-08-16T09:15:40.961Z,53.58
2022-08-16T09:17:01.329Z,54.2
2022-08-16T09:17:51.709Z,53.2
2022-08-16T09:18:41.092Z,52.4
2022-08-16T09:19:43.945Z,52.73
2022-08-16T09:20:58.370Z,54.07
2022-08-16T09:21:40.943Z,54.63
2022-08-16T09:22:51.642Z,55.58
2022-08-16T09:23:40.964Z,56.4
2022-08-16T09:24:52.336Z,56.77
2022-08-16T09:25:41.360Z,57.69
2022-08-16T09:26:44.574Z,56.86
2022-08-16T09:27:57.272Z,57.63
2022-08-16T09:29:14.505Z,57.82
2022-08-16T09:29:45.224Z,58.14
2022-08-16T09:30:43.319Z,58.53
2022-08-16T09:31:58.671Z,58.11
2022-08-16T09:32:46.940Z,57.89
2022-08-16T09:33:41.287Z,57.66
2022-08-16T09:34:40.926Z,57.33
2022-08-16T09:35:42.822Z,57.23
2022-08-16T09:36:46.224Z,57.04
2022-08-16T09:37:40.900Z,56.41
2022-08-16T09:38:48.178Z,56.06
2022-08-16T09:39:42.711Z,55.55
2022-08-16T09:41:41.353Z,54.8
2022-08-16T09:42:56.008Z,54.21
2022-08-16T09:43:58.009Z,54.73
2022-08-16T09:45:10.644Z,53.89
2022-08-16T09:45:43.171Z,54.81
2022-08-16T09:46:48.661Z,53.77
2022-08-16T09:47:57.013Z,54.44
2022-08-16T09:48:44.790Z,53.06
2022-08-16T09:49:43.728Z,53.97
2022-08-16T09:50:40.909Z,53.3
2022-08-16T09:51:43.089Z,53.26
2022-08-16T09:52:47.949Z,53.53
2022-08-16T09:53:40.931Z,53.53
2022-08-16T09:54:44.460Z,52.91
2022-08-16T09:55:44.200Z,53.08
2022-08-16T09:56:52.564Z,53.47
2022-08-16T09:57:43.987Z,52.78
2022-08-16T09:59:05.651Z,52.46
2022-08-16T09:59:42.069Z,53.36
2022-08-16T10:00:44.844Z,53.58
2022-08-16T10:01:43.542Z,53.22
2022-08-16T10:02:44.465Z,52.62
2022-08-16T10:04:02.407Z,53.39
2022-08-16T10:04:54.341Z,52.63
2022-08-16T10:05:43.514Z,53.33
2022-08-16T10:06:40.957Z,54.23
2022-08-16T10:09:44.834Z,56.23
2022-08-16T10:10:43.019Z,55.63
2022-08-16T10:11:49.915Z,56.2
2022-08-16T10:12:42.132Z,55.7
2022-08-16T10:13:40.927Z,56.33
2022-08-16T10:14:40.893Z,55.56
2022-08-16T10:15:43.588Z,55.04
2022-08-16T10:16:43.565Z,54.25
2022-08-16T10:17:40.892Z,54.9
2022-08-16T10:19:40.910Z,54.97
2022-08-16T10:20:40.884Z,54.77
2022-08-16T10:21:43.730Z,53.42
2022-08-16T10:23:43.253Z,53.84
2022-08-16T10:24:56.218Z,52.26
2022-08-16T10:27:20.112Z,51.37
2022-08-16T10:27:56.820Z,52.78
2022-08-16T10:28:43.434Z,51.86
2022-08-16T10:30:00.055Z,51.44
2022-08-16T10:30:43.640Z,50.99
2022-08-16T10:31:44.384Z,51.56
2022-08-16T10:32:40.877Z,50.65
2022-08-16T10:33:43.536Z,50.56
2022-08-16T10:34:41.010Z,50.66
2022-08-16T10:35:46.700Z,52.09
2022-08-16T10:36:40.900Z,54.29
2022-08-16T10:37:40.930Z,54.17
2022-08-16T10:38:42.087Z,54.81
2022-08-16T10:39:42.019Z,54.57
2022-08-16T10:41:43.899Z,55.23
2022-08-16T10:42:43.840Z,55.44
2022-08-16T10:43:40.823Z,55.28
2022-08-16T10:44:40.951Z,54.31
2022-08-16T10:45:42.092Z,54.75
2022-08-16T10:46:42.238Z,54.05
2022-08-16T10:47:40.861Z,54.06
2022-08-16T10:48:40.875Z,53.56
2022-08-16T10:49:40.891Z,53.53
2022-08-16T10:50:40.850Z,54.38
2022-08-16T10:52:01.201Z,54.2
2022-08-16T10:53:40.873Z,54.91
2022-08-16T10:54:59.567Z,55.06
2022-08-16T10:55:45.221Z,54.97
2022-08-16T10:57:18.864Z,54.77
2022-08-16T10:57:43.688Z,55.17
2022-08-16T10:58:40.893Z,54.21
2022-08-16T10:59:52.995Z,53.46
2022-08-16T11:00:40.913Z,53.15
2022-08-16T11:01:44.289Z,51.67
2022-08-16T11:03:37.432Z,52.01
2022-08-16T11:03:42.138Z,52.15
2022-08-16T11:05:06.843Z,52.16
2022-08-16T11:07:08.012Z,51.86
2022-08-16T11:07:51.464Z,51.65
2022-08-16T11:08:45.777Z,51.93
2022-08-16T11:09:43.870Z,51.23
2022-08-16T11:12:43.279Z,51.86
2022-08-16T11:13:59.850Z,52.15
2022-08-16T11:15:11.203Z,53.76
2022-08-16T11:15:41.911Z,53.75
2022-08-16T11:17:44.923Z,54.12
2022-08-16T11:19:04.741Z,54.22
2022-08-16T11:20:42.691Z,53.32
2022-08-16T11:24:44.638Z,53.43
2022-08-16T11:27:18.527Z,52.88
2022-08-16T11:27:40.786Z,52.68
2022-08-16T11:29:14.057Z,52.29
2022-08-16T11:29:40.867Z,51.65
2022-08-16T11:30:57.349Z,52
2022-08-16T11:31:46.023Z,52.25
2022-08-16T11:32:44.023Z,51.77
2022-08-16T11:33:56.330Z,51.26
2022-08-16T11:35:05.824Z,51.55
2022-08-16T11:35:44.392Z,51.05
2022-08-16T11:36:53.815Z,51.99
2022-08-16T11:38:51.627Z,50.04
2022-08-16T11:39:40.834Z,51.07
2022-08-16T11:40:44.322Z,51.35
2022-08-16T11:41:43.825Z,51.56
2022-08-16T11:42:40.814Z,52.66
2022-08-16T11:43:41.107Z,53.61
2022-08-16T11:44:57.082Z,54.78
2022-08-16T11:46:44.878Z,52.56
2022-08-16T11:47:40.826Z,53.41
2022-08-16T11:48:40.860Z,53.93
2022-08-16T11:49:43.467Z,53.89
2022-08-16T11:50:40.780Z,54.02
2022-08-16T11:51:40.756Z,53.93
2022-08-16T11:52:40.758Z,54.27
2022-08-16T11:53:41.144Z,54.35
2022-08-16T11:54:40.775Z,53.41
2022-08-16T11:55:40.772Z,53.04
2022-08-16T11:56:53.116Z,52.69
2022-08-16T11:57:40.943Z,52.7
2022-08-16T11:58:40.828Z,52.07
2022-08-16T11:59:46.234Z,52.54
2022-08-16T12:00:50.633Z,52.14
2022-08-16T12:01:44.442Z,52.2
2022-08-16T12:02:45.844Z,51.65
2022-08-16T12:03:43.126Z,52.08
2022-08-16T12:04:45.924Z,51.62
2022-08-16T12:05:43.257Z,52.78
2022-08-16T12:06:43.101Z,52.3
2022-08-16T12:07:43.637Z,51.74
2022-08-16T12:08:41.324Z,50.04
2022-08-16T12:09:43.408Z,50.65
2022-08-16T12:10:40.811Z,50.29
2022-08-16T12:11:40.792Z,51.19
2022-08-16T12:12:43.691Z,50.01
2022-08-16T12:13:46.006Z,49.8
2022-08-16T12:14:40.781Z,50.22
2022-08-16T12:15:40.780Z,50.99
2022-08-16T12:16:40.753Z,51.78
2022-08-16T12:17:40.728Z,52.2
2022-08-16T12:19:40.758Z,51.51
2022-08-16T12:20:42.795Z,51.52
2022-08-16T12:21:59.144Z,51.37
2022-08-16T12:22:46.156Z,50.77
2022-08-16T12:23:48.077Z,50.75
2022-08-16T12:25:42.820Z,50.95
2022-08-16T12:26:40.716Z,50.31
2022-08-16T12:27:40.729Z,51.12
2022-08-16T12:28:54.848Z,51.61
2022-08-16T12:29:43.050Z,50.5
2022-08-16T12:30:40.731Z,50.51
2022-08-16T12:32:00.465Z,50.97
2022-08-16T12:32:41.736Z,50.46
2022-08-16T12:33:42.840Z,50.99
2022-08-16T12:35:01.147Z,50.81
2022-08-16T12:35:43.523Z,49.86
2022-08-16T12:36:43.709Z,49.94
2022-08-16T12:37:42.076Z,50.16
2022-08-16T12:38:46.750Z,49.48
2022-08-16T12:39:51.283Z,48.93
2022-08-16T12:40:45.973Z,48.85
2022-08-16T12:41:45.191Z,50.1
2022-08-16T12:42:40.762Z,49.87
2022-08-16T12:43:45.184Z,48.2
2022-08-16T12:44:40.743Z,49.93
2022-08-16T12:45:41.106Z,50.38
2022-08-16T12:46:43.012Z,52.02
2022-08-16T12:47:40.733Z,53.37
2022-08-16T12:48:42.345Z,52.95
2022-08-16T12:49:43.064Z,54.42
2022-08-16T12:50:42.946Z,54.38
2022-08-16T12:51:58.161Z,54.89
2022-08-16T12:52:52.211Z,54.92
2022-08-16T12:53:40.697Z,55.17
2022-08-16T12:54:40.759Z,55.78
2022-08-16T12:55:43.928Z,55.26
2022-08-16T12:56:43.214Z,53.57
2022-08-16T12:57:42.983Z,53.2
2022-08-16T12:58:49.858Z,53.49
2022-08-16T12:59:43.337Z,52.84
2022-08-16T13:00:43.197Z,51.84
2022-08-16T13:01:40.745Z,51.87
2022-08-16T13:02:40.702Z,51.35
2022-08-16T13:03:40.888Z,50.04
2022-08-16T13:04:40.683Z,50.19
2022-08-16T13:05:45.032Z,49.55
2022-08-16T13:06:43.716Z,49.43
2022-08-16T13:07:45.330Z,49.89
2022-08-16T13:08:40.684Z,48.99
2022-08-16T13:09:43.288Z,50.2
2022-08-16T13:10:43.166Z,50.3
2022-08-16T13:11:48.286Z,51.82
2022-08-16T13:12:42.741Z,51.31
2022-08-16T13:13:40.688Z,52.81
2022-08-16T13:14:42.914Z,51.99
2022-08-16T13:15:50.049Z,51.44
2022-08-16T13:17:43.287Z,52.12
2022-08-16T13:18:42.841Z,51.75
2022-08-16T13:20:08.518Z,51.18
2022-08-16T13:20:40.717Z,50.79
2022-08-16T13:21:40.725Z,51.69
2022-08-16T13:23:43.986Z,50.96
2022-08-16T13:24:40.696Z,50.66
2022-08-16T13:25:40.712Z,50.12
2022-08-16T13:26:40.667Z,50.98
2022-08-16T13:28:03.171Z,51.94
2022-08-16T13:28:40.699Z,52.41
2022-08-16T13:29:43.769Z,52.51
2022-08-16T13:31:43.321Z,51.52
2022-08-16T13:32:40.924Z,50.85
2022-08-16T13:33:43.490Z,52.08
2022-08-16T13:34:43.325Z,51.8
2022-08-16T13:35:43.064Z,52.47
2022-08-16T13:36:49.271Z,52.13
2022-08-16T13:37:41.727Z,50.77
2022-08-16T13:38:43.261Z,49.52
2022-08-16T13:39:40.680Z,50.5
2022-08-16T13:40:40.759Z,49.67
2022-08-16T13:41:40.731Z,50.24
2022-08-16T13:43:43.676Z,48.82
2022-08-16T13:44:56.375Z,48.66
2022-08-16T13:45:44.978Z,49.11
2022-08-16T13:46:45.778Z,48.74
2022-08-16T13:47:41.273Z,48